createdAt,value
2023-03-17T00:00:23.061Z,73
2023-03-17T00:00:51.836Z,73
2023-03-17T00:01:24.525Z,73
2023-03-17T00:01:55.621Z,73
2023-03-17T00:02:11.939Z,73
2023-03-17T00:02:43.897Z,74
2023-03-17T00:03:15.833Z,74
2023-03-17T00:03:47.898Z,74
2023-03-17T00:04:19.734Z,74
2023-03-17T00:04:52.689Z,74
2023-03-17T00:05:24.157Z,74
2023-03-17T00:05:56.459Z,74
2023-03-17T00:06:27.605Z,74
2023-03-17T00:07:00.622Z,74
2023-03-17T00:07:31.810Z,74
2023-03-17T00:08:04.587Z,73
2023-03-17T00:08:36.016Z,73
2023-03-17T00:09:08.454Z,73
2023-03-17T00:09:39.901Z,73
2023-03-17T00:10:12.658Z,73
2023-03-17T00:10:43.971Z,73
2023-03-17T00:11:17.692Z,73
2023-03-17T00:11:47.721Z,73
2023-03-17T00:12:20.655Z,73
2023-03-17T00:12:51.933Z,73
2023-03-17T00:13:24.865Z,73
2023-03-17T00:13:55.910Z,73
2023-03-17T00:14:28.736Z,73
2023-03-17T00:14:59.925Z,73
2023-03-17T00:15:33.902Z,73
2023-03-17T00:16:03.821Z,73
2023-03-17T00:16:36.588Z,73
2023-03-17T00:17:08.014Z,73
2023-03-17T00:17:40.629Z,73
2023-03-17T00:18:11.806Z,73
2023-03-17T00:18:44.501Z,73
2023-03-17T00:19:15.775Z,73
2023-03-17T00:19:48.641Z,73
2023-03-17T00:20:20.260Z,73
2023-03-17T00:20:52.569Z,73
2023-03-17T00:21:23.833Z,73
2023-03-17T00:21:56.755Z,73
2023-03-17T00:22:27.854Z,73
2023-03-17T00:23:00.856Z,73
2023-03-17T00:23:31.759Z,73
2023-03-17T00:24:04.596Z,73
2023-03-17T00:24:35.799Z,73
2023-03-17T00:25:08.741Z,73
2023-03-17T00:25:39.784Z,73
2023-03-17T00:26:12.841Z,73
2023-03-17T00:26:43.722Z,73
2023-03-17T00:27:16.722Z,73
2023-03-17T00:27:47.783Z,73
2023-03-17T00:28:20.492Z,73
2023-03-17T00:28:51.788Z,73
2023-03-17T00:29:24.469Z,73
2023-03-17T00:29:55.947Z,73
2023-03-17T00:30:29.912Z,73
2023-03-17T00:30:59.889Z,73
2023-03-17T00:31:32.816Z,73
2023-03-17T00:32:03.781Z,73
2023-03-17T00:32:36.766Z,73
2023-03-17T00:33:07.981Z,73
2023-03-17T00:33:40.792Z,73
2023-03-17T00:34:11.639Z,73
2023-03-17T00:34:44.629Z,73
2023-03-17T00:35:16.186Z,73
2023-03-17T00:35:48.568Z,73
2023-03-17T00:36:19.726Z,73
2023-03-17T00:36:52.938Z,73
2023-03-17T00:37:23.769Z,73
2023-03-17T00:37:56.804Z,73
2023-03-17T00:38:27.847Z,73
2023-03-17T00:39:00.803Z,73
2023-03-17T00:39:31.745Z,73
2023-03-17T00:40:04.683Z,73
2023-03-17T00:40:35.886Z,73
2023-03-17T00:41:08.676Z,73
2023-03-17T00:41:39.675Z,73
2023-03-17T00:42:12.741Z,73
2023-03-17T00:42:43.936Z,73
2023-03-17T00:43:16.650Z,73
2023-03-17T00:43:47.723Z,73
2023-03-17T00:44:20.588Z,73
2023-03-17T00:44:51.607Z,73
2023-03-17T00:45:25.571Z,73
2023-03-17T00:45:55.888Z,73
2023-03-17T00:46:28.541Z,73
2023-03-17T00:46:59.722Z,73
2023-03-17T00:47:32.596Z,73
2023-03-17T00:48:03.951Z,73
2023-03-17T00:48:36.580Z,73
2023-03-17T00:49:07.739Z,73
2023-03-17T00:49:40.739Z,73
2023-03-17T00:50:12.013Z,73
2023-03-17T00:50:44.520Z,73
2023-03-17T00:51:15.672Z,73
2023-03-17T00:51:48.559Z,73
2023-03-17T00:52:19.762Z,73
2023-03-17T00:52:52.672Z,73
2023-03-17T00:53:23.831Z,73
2023-03-17T00:53:56.636Z,73
2023-03-17T00:54:27.823Z,73
2023-03-17T00:55:01.118Z,72
2023-03-17T00:55:31.730Z,72
2023-03-17T00:56:04.705Z,72
2023-03-17T00:56:35.829Z,72
2023-03-17T00:57:08.787Z,72
2023-03-17T00:57:39.685Z,72
2023-03-17T00:58:12.593Z,72
2023-03-17T00:58:43.820Z,72
2023-03-17T00:59:18.901Z,72
2023-03-17T00:59:47.769Z,72
2023-03-17T01:00:21.740Z,72
2023-03-17T01:00:51.926Z,72
2023-03-17T01:01:24.356Z,72
2023-03-17T01:01:55.799Z,72
2023-03-17T01:02:28.843Z,72
2023-03-17T01:02:59.635Z,72
2023-03-17T01:03:32.500Z,72
2023-03-17T01:04:03.688Z,72
2023-03-17T01:04:36.665Z,72
2023-03-17T01:05:07.978Z,72
2023-03-17T01:05:40.454Z,72
2023-03-17T01:06:11.787Z,72
2023-03-17T01:06:44.447Z,72
2023-03-17T01:07:15.648Z,72
2023-03-17T01:07:48.635Z,72
2023-03-17T01:08:19.525Z,72
2023-03-17T01:08:52.617Z,72
2023-03-17T01:09:23.840Z,72
2023-03-17T01:09:56.631Z,72
2023-03-17T01:10:28.387Z,72
2023-03-17T01:11:00.523Z,72
2023-03-17T01:11:31.774Z,72
2023-03-17T01:12:04.434Z,72
2023-03-17T01:12:35.682Z,72
2023-03-17T01:13:08.549Z,72
2023-03-17T01:13:39.785Z,72
2023-03-17T01:14:12.399Z,72
2023-03-17T01:14:43.744Z,72
2023-03-17T01:15:17.533Z,72
2023-03-17T01:15:47.812Z,72
2023-03-17T01:16:20.661Z,72
2023-03-17T01:16:51.793Z,72
2023-03-17T01:17:24.770Z,72
2023-03-17T01:17:55.764Z,72
2023-03-17T01:18:11.969Z,72
2023-03-17T01:18:43.887Z,72
2023-03-17T01:19:15.800Z,72
2023-03-17T01:19:48.543Z,72
2023-03-17T01:20:20.109Z,72
2023-03-17T01:20:52.625Z,72
2023-03-17T01:21:23.863Z,72
2023-03-17T01:21:56.647Z,72
2023-03-17T01:22:27.747Z,72
2023-03-17T01:23:00.536Z,72
2023-03-17T01:23:31.852Z,72
2023-03-17T01:24:04.707Z,72
2023-03-17T01:24:35.653Z,72
2023-03-17T01:25:08.768Z,72
2023-03-17T01:25:39.685Z,72
2023-03-17T01:26:12.629Z,72
2023-03-17T01:26:43.811Z,72
2023-03-17T01:27:16.842Z,72
2023-03-17T01:27:47.708Z,72
2023-03-17T01:28:20.670Z,72
2023-03-17T01:28:51.768Z,72
2023-03-17T01:29:24.688Z,72
2023-03-17T01:29:55.684Z,72
2023-03-17T01:30:12.744Z,72
2023-03-17T01:30:43.903Z,72
2023-03-17T01:31:15.783Z,72
2023-03-17T01:31:47.959Z,72
2023-03-17T01:32:19.612Z,71
2023-03-17T01:32:52.746Z,71
2023-03-17T01:33:23.826Z,71
2023-03-17T01:33:56.690Z,71
2023-03-17T01:34:27.664Z,71
2023-03-17T01:35:00.957Z,71
2023-03-17T01:35:31.905Z,71
2023-03-17T01:36:04.640Z,71
2023-03-17T01:36:35.875Z,71
2023-03-17T01:37:08.565Z,71
2023-03-17T01:37:39.885Z,71
2023-03-17T01:38:25.150Z,71
2023-03-17T01:38:43.781Z,71
2023-03-17T01:39:15.777Z,71
2023-03-17T01:39:47.647Z,71
2023-03-17T01:40:20.102Z,71
2023-03-17T01:40:51.862Z,71
2023-03-17T01:41:23.898Z,71
2023-03-17T01:41:55.780Z,71
2023-03-17T01:42:11.862Z,71
2023-03-17T01:42:44.466Z,71
2023-03-17T01:43:15.692Z,71
2023-03-17T01:43:48.658Z,71
2023-03-17T01:44:19.901Z,71
2023-03-17T01:44:52.465Z,71
2023-03-17T01:45:24.817Z,72
2023-03-17T01:45:57.002Z,72
2023-03-17T01:46:27.939Z,72
2023-03-17T01:47:00.721Z,72
2023-03-17T01:47:31.790Z,72
2023-03-17T01:48:04.473Z,72
2023-03-17T01:48:35.757Z,72
2023-03-17T01:49:08.501Z,72
2023-03-17T01:49:39.930Z,72
2023-03-17T01:50:12.842Z,72
2023-03-17T01:50:43.862Z,72
2023-03-17T01:51:16.700Z,72
2023-03-17T01:51:47.766Z,72
2023-03-17T01:52:20.364Z,72
2023-03-17T01:52:51.867Z,72
2023-03-17T01:53:24.773Z,72
2023-03-17T01:53:55.672Z,72
2023-03-17T01:54:11.967Z,72
2023-03-17T01:54:43.859Z,72
2023-03-17T01:55:16.287Z,72
2023-03-17T01:55:47.846Z,72
2023-03-17T01:56:19.773Z,72
2023-03-17T01:56:52.666Z,72
2023-03-17T01:57:23.873Z,72
2023-03-17T01:57:56.670Z,72
2023-03-17T01:58:27.701Z,72
2023-03-17T01:59:00.459Z,72
2023-03-17T01:59:31.930Z,72
2023-03-17T02:00:06.136Z,72
2023-03-17T02:00:35.776Z,72
2023-03-17T02:01:08.430Z,72
2023-03-17T02:01:39.767Z,72
2023-03-17T02:02:12.429Z,72
2023-03-17T02:02:43.873Z,72
2023-03-17T02:03:16.656Z,72
2023-03-17T02:03:47.761Z,72
2023-03-17T02:04:20.633Z,72
2023-03-17T02:04:51.948Z,72
2023-03-17T02:05:24.779Z,72
2023-03-17T02:05:55.944Z,72
2023-03-17T02:06:28.495Z,72
2023-03-17T02:06:59.985Z,72
2023-03-17T02:07:32.610Z,72
2023-03-17T02:08:03.957Z,72
2023-03-17T02:08:36.932Z,72
2023-03-17T02:09:07.811Z,72
2023-03-17T02:09:40.375Z,72
2023-03-17T02:10:12.242Z,72
2023-03-17T02:10:44.651Z,72
2023-03-17T02:11:15.909Z,72
2023-03-17T02:11:48.530Z,72
2023-03-17T02:12:19.843Z,72
2023-03-17T02:12:52.638Z,72
2023-03-17T02:13:23.709Z,72
2023-03-17T02:13:39.968Z,72
2023-03-17T02:14:11.806Z,72
2023-03-17T02:14:43.883Z,72
2023-03-17T02:15:16.586Z,72
2023-03-17T02:15:47.913Z,72
2023-03-17T02:16:20.780Z,72
2023-03-17T02:16:51.777Z,72
2023-03-17T02:17:24.598Z,72
2023-03-17T02:17:55.771Z,72
2023-03-17T02:18:28.813Z,72
2023-03-17T02:18:59.805Z,72
2023-03-17T02:19:32.557Z,72
2023-03-17T02:20:04.184Z,72
2023-03-17T02:20:36.900Z,72
2023-03-17T02:21:07.790Z,72
2023-03-17T02:21:40.533Z,72
2023-03-17T02:22:11.929Z,72
2023-03-17T02:22:44.707Z,72
2023-03-17T02:23:15.789Z,72
2023-03-17T02:23:48.511Z,72
2023-03-17T02:24:20.065Z,72
2023-03-17T02:24:52.630Z,72
2023-03-17T02:25:24.219Z,72
2023-03-17T02:25:56.666Z,72
2023-03-17T02:26:27.719Z,72
2023-03-17T02:27:00.563Z,72
2023-03-17T02:27:31.934Z,72
2023-03-17T02:28:04.938Z,72
2023-03-17T02:28:35.909Z,72
2023-03-17T02:29:08.765Z,72
2023-03-17T02:29:40.034Z,72
2023-03-17T02:30:13.321Z,72
2023-03-17T02:30:44.050Z,72
2023-03-17T02:31:16.806Z,72
2023-03-17T02:31:47.992Z,72
2023-03-17T02:32:20.706Z,72
2023-03-17T02:32:51.853Z,72
2023-03-17T02:33:24.812Z,72
2023-03-17T02:33:55.707Z,72
2023-03-17T02:34:42.016Z,72
2023-03-17T02:34:59.699Z,72
2023-03-17T02:35:32.193Z,72
2023-03-17T02:36:03.887Z,72
2023-03-17T02:36:35.878Z,72
2023-03-17T02:37:07.955Z,72
2023-03-17T02:37:39.773Z,72
2023-03-17T02:38:12.820Z,72
2023-03-17T02:38:43.815Z,72
2023-03-17T02:39:16.565Z,72
2023-03-17T02:39:47.648Z,72
2023-03-17T02:40:21.023Z,72
2023-03-17T02:40:51.994Z,72
2023-03-17T02:41:24.708Z,72
2023-03-17T02:41:55.755Z,72
2023-03-17T02:42:28.697Z,72
2023-03-17T02:42:59.875Z,72
2023-03-17T02:43:32.543Z,72
2023-03-17T02:44:03.806Z,72
2023-03-17T02:44:36.796Z,72
2023-03-17T02:45:08.835Z,72
2023-03-17T02:45:40.823Z,72
2023-03-17T02:46:11.845Z,72
2023-03-17T02:46:44.736Z,72
2023-03-17T02:47:15.718Z,72
2023-03-17T02:47:48.601Z,72
2023-03-17T02:48:19.900Z,71
2023-03-17T02:48:52.595Z,71
2023-03-17T02:49:23.748Z,71
2023-03-17T02:49:40.076Z,71
2023-03-17T02:50:12.166Z,71
2023-03-17T02:50:43.793Z,71
2023-03-17T02:51:15.865Z,71
2023-03-17T02:51:47.639Z,71
2023-03-17T02:52:20.624Z,71
2023-03-17T02:52:51.875Z,71
2023-03-17T02:53:24.576Z,71
2023-03-17T02:53:55.729Z,71
2023-03-17T02:54:28.685Z,72
2023-03-17T02:54:59.856Z,72
2023-03-17T02:55:33.102Z,71
2023-03-17T02:56:03.899Z,71
2023-03-17T02:56:37.128Z,71
2023-03-17T02:57:07.751Z,71
2023-03-17T02:57:40.558Z,71
2023-03-17T02:58:11.865Z,71
2023-03-17T02:58:44.647Z,72
2023-03-17T02:59:15.747Z,72
2023-03-17T02:59:48.675Z,71
2023-03-17T03:00:21.742Z,71
2023-03-17T03:00:52.852Z,71
2023-03-17T03:01:23.674Z,71
2023-03-17T03:01:56.773Z,71
2023-03-17T03:02:28.227Z,71
2023-03-17T03:03:01.011Z,71
2023-03-17T03:03:31.977Z,71
2023-03-17T03:04:04.856Z,71
2023-03-17T03:04:35.765Z,71
2023-03-17T03:05:09.454Z,71
2023-03-17T03:05:40.013Z,71
2023-03-17T03:06:12.612Z,71
2023-03-17T03:06:43.832Z,71
2023-03-17T03:07:16.854Z,71
2023-03-17T03:07:47.874Z,71
2023-03-17T03:08:20.556Z,71
2023-03-17T03:08:51.906Z,71
2023-03-17T03:09:24.759Z,71
2023-03-17T03:09:55.980Z,71
2023-03-17T03:10:29.300Z,71
2023-03-17T03:10:59.926Z,71
2023-03-17T03:11:32.595Z,71
2023-03-17T03:12:03.841Z,71
2023-03-17T03:12:36.729Z,71
2023-03-17T03:13:07.821Z,71
2023-03-17T03:13:40.780Z,71
2023-03-17T03:14:11.793Z,71
2023-03-17T03:14:44.708Z,71
2023-03-17T03:15:16.717Z,71
2023-03-17T03:15:48.873Z,71
2023-03-17T03:16:19.865Z,71
2023-03-17T03:16:53.714Z,71
2023-03-17T03:17:23.974Z,71
2023-03-17T03:17:56.928Z,71
2023-03-17T03:18:27.829Z,71
2023-03-17T03:19:00.886Z,71
2023-03-17T03:19:31.757Z,71
2023-03-17T03:20:04.804Z,71
2023-03-17T03:20:35.917Z,71
2023-03-17T03:21:08.837Z,71
2023-03-17T03:21:39.837Z,71
2023-03-17T03:22:12.759Z,71
2023-03-17T03:22:43.896Z,71
2023-03-17T03:23:16.633Z,71
2023-03-17T03:23:47.757Z,71
2023-03-17T03:24:20.863Z,71
2023-03-17T03:24:51.960Z,71
2023-03-17T03:25:25.104Z,71
2023-03-17T03:25:55.808Z,71
2023-03-17T03:26:28.576Z,71
2023-03-17T03:26:59.795Z,71
2023-03-17T03:27:32.632Z,71
2023-03-17T03:28:03.895Z,71
2023-03-17T03:28:36.830Z,71
2023-03-17T03:29:07.780Z,71
2023-03-17T03:29:40.635Z,71
2023-03-17T03:30:12.771Z,71
2023-03-17T03:30:44.492Z,71
2023-03-17T03:31:15.840Z,71
2023-03-17T03:31:48.788Z,71
2023-03-17T03:32:19.667Z,71
2023-03-17T03:32:52.785Z,71
2023-03-17T03:33:23.838Z,71
2023-03-17T03:33:56.872Z,71
2023-03-17T03:34:27.803Z,71
2023-03-17T03:35:00.772Z,71
2023-03-17T03:35:31.951Z,71
2023-03-17T03:36:04.575Z,71
2023-03-17T03:36:35.873Z,71
2023-03-17T03:37:08.784Z,71
2023-03-17T03:37:39.870Z,71
2023-03-17T03:38:12.721Z,71
2023-03-17T03:38:43.801Z,71
2023-03-17T03:39:16.770Z,71
2023-03-17T03:39:47.805Z,71
2023-03-17T03:40:20.958Z,71
2023-03-17T03:40:51.988Z,71
2023-03-17T03:41:25.346Z,71
2023-03-17T03:41:55.792Z,71
2023-03-17T03:42:28.910Z,71
2023-03-17T03:43:00.479Z,71
2023-03-17T03:43:32.371Z,71
2023-03-17T03:44:03.786Z,71
2023-03-17T03:44:37.670Z,71
2023-03-17T03:45:08.728Z,71
2023-03-17T03:45:40.653Z,71
2023-03-17T03:46:11.894Z,71
2023-03-17T03:46:44.756Z,71
2023-03-17T03:47:15.811Z,71
2023-03-17T03:47:48.773Z,71
2023-03-17T03:48:19.882Z,71
2023-03-17T03:48:52.537Z,71
2023-03-17T03:49:23.798Z,71
2023-03-17T03:49:56.681Z,71
2023-03-17T03:50:28.327Z,71
2023-03-17T03:51:00.703Z,71
2023-03-17T03:51:31.841Z,71
2023-03-17T03:52:04.741Z,71
2023-03-17T03:52:35.748Z,71
2023-03-17T03:53:08.579Z,71
2023-03-17T03:53:39.986Z,71
2023-03-17T03:54:12.549Z,71
2023-03-17T03:54:43.822Z,71
2023-03-17T03:55:18.062Z,71
2023-03-17T03:55:47.862Z,71
2023-03-17T03:56:20.623Z,71
2023-03-17T03:56:51.822Z,71
2023-03-17T03:57:24.666Z,71
2023-03-17T03:57:55.846Z,71
2023-03-17T03:58:28.680Z,71
2023-03-17T03:58:59.983Z,71
2023-03-17T03:59:32.628Z,71
2023-03-17T04:00:05.622Z,71
2023-03-17T04:00:37.061Z,71
2023-03-17T04:01:07.928Z,71
2023-03-17T04:01:40.589Z,71
2023-03-17T04:02:11.827Z,71
2023-03-17T04:02:44.721Z,71
2023-03-17T04:03:15.993Z,71
2023-03-17T04:03:48.539Z,71
2023-03-17T04:04:19.905Z,71
2023-03-17T04:04:52.727Z,71
2023-03-17T04:05:24.089Z,71
2023-03-17T04:05:56.601Z,71
2023-03-17T04:06:27.867Z,71
2023-03-17T04:07:00.644Z,71
2023-03-17T04:07:31.823Z,71
2023-03-17T04:08:04.735Z,71
2023-03-17T04:08:35.970Z,71
2023-03-17T04:09:08.511Z,71
2023-03-17T04:09:39.827Z,71
2023-03-17T04:10:13.049Z,71
2023-03-17T04:10:44.107Z,71
2023-03-17T04:11:16.746Z,71
2023-03-17T04:11:47.906Z,71
2023-03-17T04:12:20.794Z,71
2023-03-17T04:12:51.811Z,71
2023-03-17T04:13:24.750Z,71
2023-03-17T04:13:55.991Z,71
2023-03-17T04:14:28.767Z,71
2023-03-17T04:14:59.781Z,71
2023-03-17T04:15:33.550Z,71
2023-03-17T04:16:03.831Z,71
2023-03-17T04:16:36.629Z,71
2023-03-17T04:17:07.777Z,71
2023-03-17T04:17:40.829Z,71
2023-03-17T04:18:12.023Z,71
2023-03-17T04:18:44.464Z,71
2023-03-17T04:19:15.946Z,71
2023-03-17T04:19:49.785Z,71
2023-03-17T04:20:20.037Z,71
2023-03-17T04:20:52.424Z,71
2023-03-17T04:21:23.802Z,71
2023-03-17T04:21:56.573Z,71
2023-03-17T04:22:27.749Z,71
2023-03-17T04:23:00.834Z,71
2023-03-17T04:23:31.969Z,71
2023-03-17T04:24:04.557Z,71
2023-03-17T04:24:35.796Z,71
2023-03-17T04:25:08.836Z,71
2023-03-17T04:25:39.810Z,71
2023-03-17T04:26:12.526Z,71
2023-03-17T04:26:43.892Z,71
2023-03-17T04:27:16.740Z,71
2023-03-17T04:27:47.691Z,71
2023-03-17T04:28:20.600Z,71
2023-03-17T04:28:51.910Z,71
2023-03-17T04:29:24.514Z,71
2023-03-17T04:29:55.765Z,71
2023-03-17T04:30:30.100Z,71
2023-03-17T04:30:59.933Z,71
2023-03-17T04:31:32.893Z,71
2023-03-17T04:32:03.738Z,71
2023-03-17T04:32:37.093Z,71
2023-03-17T04:33:07.792Z,71
2023-03-17T04:33:40.619Z,71
2023-03-17T04:34:11.903Z,71
2023-03-17T04:34:44.793Z,72
2023-03-17T04:35:16.150Z,72
2023-03-17T04:35:49.711Z,72
2023-03-17T04:36:19.901Z,72
2023-03-17T04:36:52.774Z,72
2023-03-17T04:37:23.859Z,72
2023-03-17T04:37:56.678Z,72
2023-03-17T04:38:27.887Z,72
2023-03-17T04:39:00.540Z,72
2023-03-17T04:39:31.864Z,72
2023-03-17T04:40:04.948Z,72
2023-03-17T04:40:35.773Z,72
2023-03-17T04:41:08.693Z,72
2023-03-17T04:41:39.909Z,72
2023-03-17T04:42:12.893Z,72
2023-03-17T04:42:43.814Z,72
2023-03-17T04:43:16.774Z,72
2023-03-17T04:43:47.911Z,72
2023-03-17T04:44:20.686Z,72
2023-03-17T04:44:51.788Z,72
2023-03-17T04:45:25.879Z,72
2023-03-17T04:45:55.929Z,72
2023-03-17T04:46:28.740Z,72
2023-03-17T04:46:59.877Z,72
2023-03-17T04:47:32.928Z,72
2023-03-17T04:48:03.770Z,72
2023-03-17T04:48:36.607Z,72
2023-03-17T04:49:07.740Z,72
2023-03-17T04:49:40.760Z,72
2023-03-17T04:50:12.170Z,72
2023-03-17T04:50:44.563Z,72
2023-03-17T04:51:15.905Z,72
2023-03-17T04:51:48.647Z,72
2023-03-17T04:52:19.962Z,72
2023-03-17T04:52:52.866Z,72
2023-03-17T04:53:23.921Z,72
2023-03-17T04:53:56.866Z,72
2023-03-17T04:54:27.978Z,72
2023-03-17T04:55:01.174Z,72
2023-03-17T04:55:31.933Z,72
2023-03-17T04:56:04.910Z,72
2023-03-17T04:56:35.954Z,72
2023-03-17T04:57:08.729Z,72
2023-03-17T04:57:39.895Z,72
2023-03-17T04:58:21.146Z,72
2023-03-17T04:58:44.046Z,72
2023-03-17T04:59:16.688Z,72
2023-03-17T04:59:47.944Z,72
2023-03-17T05:00:22.415Z,72
2023-03-17T05:00:52.038Z,72
2023-03-17T05:01:25.063Z,72
2023-03-17T05:01:55.894Z,72
2023-03-17T05:02:29.210Z,72
2023-03-17T05:02:59.816Z,72
2023-03-17T05:03:32.811Z,72
2023-03-17T05:04:03.933Z,72
2023-03-17T05:04:36.603Z,72
2023-03-17T05:05:08.018Z,72
2023-03-17T05:05:42.701Z,72
2023-03-17T05:06:11.798Z,72
2023-03-17T05:06:44.606Z,72
2023-03-17T05:07:15.864Z,72
2023-03-17T05:07:48.713Z,72
2023-03-17T05:08:19.773Z,72
2023-03-17T05:08:52.671Z,72
2023-03-17T05:09:23.883Z,72
2023-03-17T05:09:56.591Z,72
2023-03-17T05:10:28.254Z,72
2023-03-17T05:11:00.699Z,72
2023-03-17T05:11:32.105Z,72
2023-03-17T05:12:04.757Z,72
2023-03-17T05:12:35.949Z,72
2023-03-17T05:13:08.681Z,72
2023-03-17T05:13:39.873Z,72
2023-03-17T05:14:13.665Z,72
2023-03-17T05:14:43.997Z,72
2023-03-17T05:15:17.531Z,72
2023-03-17T05:15:47.903Z,72
2023-03-17T05:16:20.884Z,72
2023-03-17T05:16:52.067Z,72
2023-03-17T05:17:24.742Z,72
2023-03-17T05:17:55.882Z,72
2023-03-17T05:18:28.771Z,72
2023-03-17T05:19:00.029Z,72
2023-03-17T05:19:32.665Z,72
2023-03-17T05:20:04.091Z,72
2023-03-17T05:20:36.799Z,72
2023-03-17T05:21:07.685Z,72
2023-03-17T05:21:40.858Z,72
2023-03-17T05:22:11.892Z,72
2023-03-17T05:22:44.726Z,72
2023-03-17T05:23:15.826Z,72
2023-03-17T05:23:48.956Z,72
2023-03-17T05:24:19.946Z,72
2023-03-17T05:24:52.616Z,72
2023-03-17T05:25:24.174Z,72
2023-03-17T05:25:56.871Z,72
2023-03-17T05:26:27.838Z,72
2023-03-17T05:27:00.905Z,72
2023-03-17T05:27:31.899Z,72
2023-03-17T05:28:04.860Z,72
2023-03-17T05:28:35.890Z,72
2023-03-17T05:29:08.711Z,72
2023-03-17T05:29:40.009Z,72
2023-03-17T05:30:14.596Z,72
2023-03-17T05:30:44.347Z,72
2023-03-17T05:31:17.259Z,72
2023-03-17T05:31:47.772Z,72
2023-03-17T05:32:21.122Z,72
2023-03-17T05:32:52.233Z,72
2023-03-17T05:33:25.077Z,72
2023-03-17T05:33:56.172Z,72
2023-03-17T05:34:29.005Z,72
2023-03-17T05:35:00.673Z,72
2023-03-17T05:35:32.961Z,72
2023-03-17T05:36:04.157Z,72
2023-03-17T05:36:37.102Z,72
2023-03-17T05:37:08.235Z,72
2023-03-17T05:37:40.863Z,72
2023-03-17T05:38:12.226Z,72
2023-03-17T05:38:44.971Z,72
2023-03-17T05:39:15.845Z,72
2023-03-17T05:39:48.800Z,72
2023-03-17T05:40:22.527Z,72
2023-03-17T05:40:53.032Z,72
2023-03-17T05:41:24.013Z,72
2023-03-17T05:41:40.267Z,72
2023-03-17T05:42:12.224Z,72
2023-03-17T05:42:44.064Z,72
2023-03-17T05:43:16.155Z,72
2023-03-17T05:43:48.209Z,72
2023-03-17T05:44:20.176Z,72
2023-03-17T05:44:52.099Z,72
2023-03-17T05:45:25.110Z,72
2023-03-17T05:45:56.165Z,72
2023-03-17T05:46:13.357Z,72
2023-03-17T05:46:44.100Z,72
2023-03-17T05:47:16.757Z,72
2023-03-17T05:47:48.089Z,72
2023-03-17T05:48:36.240Z,72
2023-03-17T05:49:08.098Z,72
2023-03-17T05:49:39.998Z,72
2023-03-17T05:50:13.223Z,72
2023-03-17T05:50:44.118Z,72
2023-03-17T05:51:17.091Z,72
2023-03-17T05:51:48.036Z,72
2023-03-17T05:52:21.102Z,72
2023-03-17T05:52:52.141Z,72
2023-03-17T05:53:25.016Z,72
2023-03-17T05:53:56.051Z,72
2023-03-17T05:54:29.030Z,72
2023-03-17T05:55:00.037Z,72
2023-03-17T05:55:33.203Z,72
2023-03-17T05:56:04.185Z,72
2023-03-17T05:56:52.229Z,72
2023-03-17T05:57:24.323Z,72
2023-03-17T05:57:55.995Z,72
2023-03-17T05:58:28.864Z,72
2023-03-17T05:59:00.060Z,72
2023-03-17T05:59:33.002Z,72
2023-03-17T06:00:05.579Z,72
2023-03-17T06:00:37.945Z,72
2023-03-17T06:01:08.125Z,72
2023-03-17T06:01:40.791Z,72
2023-03-17T06:02:12.165Z,72
2023-03-17T06:02:45.899Z,72
2023-03-17T06:03:16.244Z,72
2023-03-17T06:03:48.872Z,72
2023-03-17T06:04:20.057Z,72
2023-03-17T06:04:53.019Z,72
2023-03-17T06:05:24.336Z,72
2023-03-17T06:05:56.955Z,72
2023-03-17T06:06:28.188Z,72
2023-03-17T06:07:00.970Z,72
2023-03-17T06:07:41.327Z,72
2023-03-17T06:08:04.985Z,72
2023-03-17T06:08:36.122Z,72
2023-03-17T06:09:09.641Z,72
2023-03-17T06:09:40.119Z,72
2023-03-17T06:10:13.176Z,72
2023-03-17T06:10:44.333Z,72
2023-03-17T06:11:17.502Z,72
2023-03-17T06:11:47.952Z,72
2023-03-17T06:12:21.248Z,72
2023-03-17T06:12:52.011Z,72
2023-03-17T06:13:25.045Z,72
2023-03-17T06:13:56.115Z,72
2023-03-17T06:14:29.124Z,72
2023-03-17T06:15:00.020Z,73
2023-03-17T06:15:34.785Z,73
2023-03-17T06:16:04.429Z,73
2023-03-17T06:16:37.127Z,73
2023-03-17T06:17:08.098Z,73
2023-03-17T06:17:41.990Z,73
2023-03-17T06:18:12.374Z,73
2023-03-17T06:18:44.903Z,73
2023-03-17T06:19:16.219Z,73
2023-03-17T06:19:49.518Z,73
2023-03-17T06:20:20.323Z,73
2023-03-17T06:20:52.990Z,73
2023-03-17T06:21:24.133Z,73
2023-03-17T06:21:56.701Z,73
2023-03-17T06:22:28.081Z,72
2023-03-17T06:23:04.980Z,72
2023-03-17T06:23:32.233Z,72
2023-03-17T06:24:04.802Z,72
2023-03-17T06:24:36.191Z,72
2023-03-17T06:25:09.490Z,72
2023-03-17T06:25:40.070Z,72
2023-03-17T06:26:12.935Z,72
2023-03-17T06:26:44.231Z,72
2023-03-17T06:27:16.991Z,72
2023-03-17T06:27:48.095Z,72
2023-03-17T06:28:21.069Z,72
2023-03-17T06:28:52.279Z,72
2023-03-17T06:29:24.815Z,72
2023-03-17T06:29:56.153Z,72
2023-03-17T06:30:30.043Z,72
2023-03-17T06:31:00.190Z,71
2023-03-17T06:31:33.029Z,71
2023-03-17T06:32:19.329Z,71
2023-03-17T06:32:38.239Z,71
2023-03-17T06:33:08.426Z,71
2023-03-17T06:33:40.900Z,71
2023-03-17T06:34:12.273Z,71
2023-03-17T06:34:44.929Z,71
2023-03-17T06:35:16.369Z,71
2023-03-17T06:35:50.928Z,71
2023-03-17T06:36:20.070Z,71
2023-03-17T06:36:52.884Z,71
2023-03-17T06:37:24.208Z,71
2023-03-17T06:37:57.185Z,71
2023-03-17T06:38:28.067Z,71
2023-03-17T06:39:01.015Z,71
2023-03-17T06:39:32.257Z,70
2023-03-17T06:40:05.044Z,70
2023-03-17T06:40:36.128Z,69
2023-03-17T06:41:08.888Z,69
2023-03-17T06:41:40.283Z,69
2023-03-17T06:42:13.903Z,69
2023-03-17T06:42:44.104Z,69
2023-03-17T06:43:17.113Z,69
2023-03-17T06:43:48.068Z,69
2023-03-17T06:44:21.944Z,69
2023-03-17T06:44:52.253Z,69
2023-03-17T06:45:25.908Z,69
2023-03-17T06:45:56.316Z,69
2023-03-17T06:46:29.265Z,69
2023-03-17T06:47:00.122Z,69
2023-03-17T06:47:33.058Z,69
2023-03-17T06:48:04.250Z,69
2023-03-17T06:48:37.342Z,69
2023-03-17T06:49:08.132Z,69
2023-03-17T06:49:40.901Z,69
2023-03-17T06:50:12.496Z,69
2023-03-17T06:50:44.833Z,69
2023-03-17T06:51:16.253Z,68
2023-03-17T06:51:49.081Z,68
2023-03-17T06:52:19.982Z,68
2023-03-17T06:52:53.060Z,68
2023-03-17T06:53:24.191Z,68
2023-03-17T06:53:57.102Z,68
2023-03-17T06:54:28.223Z,68
2023-03-17T06:55:01.431Z,68
2023-03-17T06:55:34.352Z,68
2023-03-17T06:56:06.309Z,68
2023-03-17T06:56:36.878Z,67
2023-03-17T06:57:09.317Z,67
2023-03-17T06:57:40.064Z,68
2023-03-17T06:58:12.840Z,68
2023-03-17T06:58:44.197Z,67
2023-03-17T06:59:16.836Z,67
2023-03-17T06:59:48.607Z,67
2023-03-17T07:00:22.245Z,67
2023-03-17T07:00:52.417Z,66
2023-03-17T07:01:25.060Z,66
2023-03-17T07:01:56.223Z,66
2023-03-17T07:02:30.175Z,66
2023-03-17T07:03:00.024Z,66
2023-03-17T07:03:33.016Z,66
2023-03-17T07:04:04.396Z,66
2023-03-17T07:04:37.210Z,66
2023-03-17T07:05:08.339Z,66
2023-03-17T07:05:40.923Z,66
2023-03-17T07:06:12.099Z,66
2023-03-17T07:06:44.902Z,66
2023-03-17T07:07:16.202Z,66
2023-03-17T07:07:49.189Z,66
2023-03-17T07:08:19.897Z,66
2023-03-17T07:08:52.851Z,66
2023-03-17T07:09:24.174Z,66
2023-03-17T07:09:56.952Z,66
2023-03-17T07:10:28.431Z,66
2023-03-17T07:11:00.909Z,66
2023-03-17T07:11:32.200Z,64
2023-03-17T07:12:04.997Z,64
2023-03-17T07:12:36.098Z,63
2023-03-17T07:13:09.049Z,63
2023-03-17T07:13:40.421Z,64
2023-03-17T07:14:13.321Z,64
2023-03-17T07:14:44.107Z,64
2023-03-17T07:15:17.976Z,64
2023-03-17T07:15:48.487Z,64
2023-03-17T07:16:21.533Z,64
2023-03-17T07:16:52.482Z,64
2023-03-17T07:17:25.354Z,64
2023-03-17T07:17:56.381Z,63
2023-03-17T07:18:30.694Z,63
2023-03-17T07:19:00.340Z,63
2023-03-17T07:19:33.311Z,63
2023-03-17T07:20:04.986Z,63
2023-03-17T07:20:37.262Z,63
2023-03-17T07:21:08.385Z,63
2023-03-17T07:21:41.348Z,63
2023-03-17T07:22:12.442Z,63
2023-03-17T07:22:45.360Z,63
2023-03-17T07:23:16.482Z,61
2023-03-17T07:23:49.312Z,61
2023-03-17T07:24:20.618Z,61
2023-03-17T07:24:53.406Z,61
2023-03-17T07:25:25.105Z,61
2023-03-17T07:25:57.321Z,61
2023-03-17T07:26:28.517Z,61
2023-03-17T07:27:01.286Z,61
2023-03-17T07:27:32.361Z,61
2023-03-17T07:28:05.361Z,61
2023-03-17T07:28:36.453Z,61
2023-03-17T07:29:09.385Z,61
2023-03-17T07:29:40.488Z,61
2023-03-17T07:30:14.299Z,61
2023-03-17T07:30:44.711Z,60
2023-03-17T07:31:17.266Z,60
2023-03-17T07:31:48.421Z,61
2023-03-17T07:32:21.381Z,61
2023-03-17T07:32:52.574Z,59
2023-03-17T07:33:25.469Z,59
2023-03-17T07:33:57.404Z,59
2023-03-17T07:34:29.524Z,59